This is the latest recevied weather packets stored in our database for station/object K7AC-13. If no packets are shown the sender has not sent any weather packets the latest 10 day(s).
| Time | Temp. | Humidity | Pressure | Rain* | Wind** | Luminosity | Snow |
|---|---|---|---|---|---|---|---|
| 1777371351 | 13.89° C | 41% | 1015.3 hPa | 0 mm | - | - | - |
| 1777369548 | 15° C | 40% | 1014.9 hPa | 0 mm | - | - | - |
| 1777364163 | 18.33° C | 31% | 1015.2 hPa | 0 mm | - | - | - |
| 1777363248 | 18.89° C | 30% | 1015.2 hPa | 0 mm | - | - | - |
| 1777362346 | 19.44° C | 30% | 1015.1 hPa | 0 mm | - | - | - |
| 1777361443 | 19.44° C | 30% | 1015.1 hPa | 0 mm | - | - | - |
| 1777356045 | 20.56° C | 26% | 1014.5 hPa | 0 mm | - | - | - |
| 1777353346 | 21.11° C | 25% | 1014.1 hPa | 0 mm | - | - | - |
| 1777352446 | 21.67° C | 25% | 1014.1 hPa | 0 mm | - | - | - |
| 1777351551 | 21.67° C | 25% | 1014 hPa | 0 mm | - | - | - |
| 1777347045 | 22.78° C | 24% | 1012.7 hPa | 0 mm | - | - | - |
| 1777338947 | 26.11° C | 18% | 1010.9 hPa | 0 mm | - | - | - |
| 1777337151 | 26.67° C | 17% | 1010.7 hPa | 0 mm | - | - | - |
| 1777327247 | 26.67° C | 17% | 1012 hPa | 0 mm | - | - | - |
| 1777311052 | 23.33° C | 27% | 1015 hPa | 0 mm | - | - | - |
| 1777310145 | 22.78° C | 28% | 1015.1 hPa | 0 mm | - | - | - |
| 1777304746 | 21.11° C | 31% | 1014.8 hPa | 0 mm | - | - | - |
| 1777302051 | 18.89° C | 34% | 1014.7 hPa | 0 mm | - | - | - |
| 1777301147 | 17.22° C | 37% | 1014.8 hPa | 0 mm | - | - | - |
| 1777294846 | 11.11° C | 51% | 1013.9 hPa | 0 mm | - | - | - |
| 1777293046 | 10.56° C | 54% | 1013.6 hPa | 0 mm | - | - | - |
| 1777290369 | 11.11° C | 49% | 1013.4 hPa | 0 mm | - | - | - |
| 1777289453 | 11.67° C | 50% | 1013.3 hPa | 0 mm | - | - | - |
| 1777285848 | 12.78° C | 45% | 1013.2 hPa | 0 mm | - | - | - |
| 1777274161 | 16.67° C | 35% | 1013.4 hPa | 0 mm | - | - | - |
* Rain latest hour (hover to see other rain measurements)
** Current wind speed in m/s (hover to see current wind gust speed)